DUB weather

Dublin Airport
Dublin, County Dublin, Ireland

Public forecast

Using degrees Celsius for public forecast. Weather courtesy of forecast.io.

METAR (pilot weather report)

Retrieved 2018/08/20 03:30 UTC (8 minutes ago):

EIDW 200330Z VRB03KT 6000 -DZ BKN005 BKN012 17/17 Q1018 NOSIG

TAF (pilot weather forecast)

Forecast is more than 12 hours old.

Retrieved 2018/08/18 00:11 UTC (2 days ago):

TAF EIDW 182300Z 1900/1924 21015G25KT 9999 SCT012 BKN020 TEMPO 1900/1902 4000 RADZ BKN008 SCT018CB BECMG 1901/1904 26014KT TEMPO 1903/1913 5000 -DZ BKN008 PROB30 TEMPO 1904/1908 1500 BR BKN002 BECMG 1909/1912 28010KT BECMG 1917/1920 VRB03KT TEMPO 1922/1924 SCT008 BKN012